Latest Weather Observations for Woolshed

IDQ60801

Issued at 6:05 pm EST Sunday 26 October 2014 (issued every 30 minutes, with the page automatically refreshed every 10 minutes)

About weather observations | Map of weather stations | Latest weather observations for QLD | Other Formats
Station Details ID: 033307 Name: WOOLSHED Lat: -19.42 Lon: 146.54 Height: 556.04 m
Data from the previous 72 hours. | See also: Recent months at Woolshed
Date/Time
EST
Temp
°C
App
Temp
°C
Dew
Point
Rel
Hum
%
Delta-T
°C
Wind Press
QNH
hPa
Press
MSL
hPa
Rain
since 9 am
mm
Dir
 
Spd
km/h
Gust
km/h
Spd
kts
Gust
kts
26/06:00pm 20.7 21.6 16.5 77 2.6 NNE 7 13 4 7 1017.4 1014.4 0.0
26/05:30pm 21.7 22.5 16.4 72 3.3 NNE 7 20 4 11 1017.3 1014.3 0.0
26/05:00pm 22.4 22.8 16.2 68 3.8 NNE 9 19 5 10 1017.1 1014.1 0.0
26/04:30pm 23.4 23.0 16.2 64 4.5 NNE 13 28 7 15 1016.8 1013.8 0.0
26/04:00pm 23.9 23.1 16.2 62 4.8 NNE 15 26 8 14 1016.7 1013.7 0.0
26/03:30pm 24.7 24.4 16.4 60 5.2 NNE 13 24 7 13 1016.7 1013.7 0.0
26/03:00pm 25.0 24.9 15.9 57 5.7 NNE 11 22 6 12 1016.9 1013.9 0.0
26/02:30pm 25.7 25.6 16.0 55 6.1 NNE 11 19 6 10 1017.1 1014.1 0.0
26/02:00pm 25.8 25.0 15.2 52 6.5 NNE 13 24 7 13 1017.4 1014.4 0.0
26/01:30pm 26.4 25.9 15.8 52 6.6 NNE 13 26 7 14 1017.6 1014.6 0.0
26/01:00pm 26.5 26.6 15.5 50 6.8 NE 9 20 5 11 1017.9 1015.0 0.0
26/12:30pm 25.7 25.4 15.4 53 6.4 NNE 11 19 6 10 1018.4 1015.4 0.0
26/12:00pm 26.6 26.7 15.6 50 6.8 NNE 9 20 5 11 1018.7 1015.7 0.0
26/11:30am 25.8 25.4 15.2 52 6.5 NE 11 22 6 12 1019.0 1016.0 0.0
26/11:00am 24.7 24.2 14.8 54 6.0 NE 11 24 6 13 1019.4 1016.5 0.0
26/10:30am 24.9 25.1 14.7 53 6.2 NNE 7 17 4 9 1019.7 1016.8 0.0
26/10:00am 23.8 23.9 15.6 60 5.1 NE 9 17 5 9 1020.3 1017.3 0.0
26/09:30am 22.5 22.7 14.6 61 4.8 NE 7 17 4 9 1020.4 1017.4 0.0
26/09:00am 22.3 22.7 15.2 64 4.3 NNE 7 13 4 7 1020.5 1017.5 0.0
26/08:30am 21.6 22.0 16.3 72 3.3 NNE 9 19 5 10 1020.3 1017.3 0.0
26/08:00am 20.5 20.7 15.7 74 2.9 ENE 9 19 5 10 1020.2 1017.2 0.0
26/07:30am 19.7 19.5 15.8 78 2.4 NE 11 19 6 10 1019.9 1017.0 0.0
26/07:00am 19.1 20.0 16.5 85 1.6 NE 7 15 4 8 1019.7 1016.8 0.0
26/06:30am 17.8 19.2 17.3 97 0.3 NE 6 15 3 8 1019.5 1016.6 0.0
26/06:00am 16.7 18.1 16.5 99 0.1 NE 4 9 2 5 1019.2 1016.2 0.0
26/05:30am 16.7 18.0 16.1 96 0.4 E 4 9 2 5 1018.9 1015.9 0.0
26/05:00am 16.8 18.1 16.2 96 0.4 ENE 4 9 2 5 1018.6 1015.6 0.0
26/04:30am 16.9 17.8 16.1 95 0.5 NE 6 9 3 5 1018.4 1015.4 0.0
26/04:00am 17.2 17.6 16.4 95 0.5 NE 9 15 5 8 1018.5 1015.5 0.0
26/03:30am 17.2 18.0 16.4 95 0.5 NE 7 15 4 8 1018.5 1015.5 0.0
26/03:00am 17.2 18.1 16.6 96 0.4 NE 7 13 4 7 1018.5 1015.5 0.0
26/02:30am 17.4 18.4 16.8 96 0.4 NE 7 15 4 8 1018.6 1015.6 0.0
26/02:00am 17.2 17.9 16.2 94 0.6 NE 7 13 4 7 1018.9 1015.9 0.0
26/01:30am 17.5 17.9 16.4 93 0.7 NE 9 17 5 9 1019.1 1016.1 0.0
26/01:00am 17.4 18.2 16.3 93 0.7 NE 7 13 4 7 1019.4 1016.5 0.0
26/12:30am 17.5 17.9 16.2 92 0.8 NE 9 15 5 8 1019.7 1016.8 0.0
26/12:00am 17.7 18.6 16.6 93 0.7 NE 7 15 4 8 1020.2 1017.2 0.0
 
Date/Time
EST
Temp
°C
App
Temp
°C
Dew
Point
Rel
Hum
%
Delta-T
°C
Wind Press
QNH
hPa
Press
MSL
hPa
Rain
since 9 am
mm
Dir
 
Spd
km/h
Gust
km/h
Spd
kts
Gust
kts
25/11:30pm 17.5 18.2 16.2 92 0.8 NNE 7 13 4 7 1020.4 1017.4 0.0
25/11:00pm 17.9 18.2 16.1 89 1.1 NE 9 15 5 8 1020.6 1017.6 0.0
25/10:30pm 18.3 18.6 16.1 87 1.3 NE 9 15 5 8 1020.8 1017.8 0.0
25/10:00pm 18.2 18.6 16.2 88 1.2 NE 9 19 5 10 1020.9 1017.9 0.0
25/09:30pm 17.9 18.3 16.2 90 1.0 NE 9 19 5 10 1020.8 1017.8 0.0
25/09:00pm 17.9 18.3 16.2 90 1.0 NNE 9 19 5 10 1020.7 1017.7 0.0
25/08:30pm 18.1 18.5 16.4 90 1.0 NNE 9 17 5 9 1020.5 1017.5 0.0
25/08:00pm 18.3 18.8 16.5 89 1.1 NE 9 17 5 9 1020.3 1017.3 0.0
25/07:30pm 18.5 18.4 16.1 86 1.5 NE 11 17 6 9 1019.9 1017.0 0.0
25/07:00pm 18.8 19.4 15.7 82 1.9 NE 7 15 4 8 1019.7 1016.8 0.0
25/06:30pm 19.5 19.6 15.6 78 2.4 NNE 9 19 5 10 1019.4 1016.5 0.0
25/06:00pm 20.2 20.2 15.2 73 3.0 NNE 9 20 5 11 1019.1 1016.1 0.0
25/05:30pm 21.1 21.0 15.0 68 3.7 N 9 19 5 10 1018.9 1015.9 0.0
25/05:00pm 22.4 21.9 15.0 63 4.5 NNE 11 22 6 12 1018.7 1015.7 0.0
25/04:30pm 23.2 22.6 14.5 58 5.3 N 11 20 6 11 1018.4 1015.4 0.0
25/04:00pm 24.1 24.1 15.1 57 5.5 NNE 9 19 5 10 1018.3 1015.3 0.0
25/03:30pm 24.7 23.9 13.9 51 6.5 NNE 11 24 6 13 1018.6 1015.6 0.0
25/03:00pm 25.0 23.8 13.9 50 6.7 NNE 13 22 7 12 1018.7 1015.7 0.0
25/02:30pm 25.7 25.1 14.5 50 6.8 NNE 11 19 6 10 1018.8 1015.8 0.0
25/02:00pm 25.1 23.9 13.9 49 6.7 NNE 13 24 7 13 1019.0 1016.0 0.0
25/01:30pm 25.4 24.3 14.2 50 6.8 NNE 13 26 7 14 1019.3 1016.3 0.0
25/01:00pm 25.1 24.1 14.6 52 6.4 NNE 13 22 7 12 1019.7 1016.8 0.0
25/12:30pm 25.6 24.1 14.1 49 7.0 NNE 15 26 8 14 1019.9 1017.0 0.0
25/12:00pm 26.1 25.6 14.9 50 6.9 NNE 11 26 6 14 1020.4 1017.4 0.0
25/11:30am 25.9 25.3 15.6 53 6.4 NE 13 33 7 18 1020.6 1017.6 0.0
25/11:00am 24.7 23.3 14.5 53 6.2 NE 15 26 8 14 1021.2 1018.3 0.0
25/10:30am 23.7 23.4 14.4 56 5.6 NNE 9 19 5 10 1021.5 1018.6 0.0
25/10:00am 23.2 22.7 15.0 60 5.0 E 11 20 6 11 1022.0 1019.0 0.0
25/09:30am 23.0 23.3 15.1 61 4.8 ENE 7 15 4 8 1022.3 1019.3 0.0
25/09:00am 21.0 21.7 16.2 74 3.0 E 7 13 4 7 1022.4 1019.4 0.0
25/08:30am 20.6 21.3 16.0 75 2.8 ENE 7 13 4 7 1022.3 1019.3 0.0
25/08:00am 19.8 20.9 16.6 82 2.0 ENE 6 11 3 6 1022.2 1019.2 0.0
25/07:30am 18.9 20.0 16.5 86 1.5 ENE 6 11 3 6 1021.8 1018.9 0.0
25/07:00am 18.0 18.7 16.2 89 1.1 ENE 7 11 4 6 1021.5 1018.6 0.0
25/06:30am 16.9 17.7 15.8 93 0.7 E 6 11 3 6 1021.2 1018.3 0.0
25/06:00am 16.9 17.8 16.1 95 0.5 E 6 13 3 7 1020.9 1017.9 0.0
25/05:30am 16.2 17.2 15.4 95 0.5 E 4 7 2 4 1020.6 1017.6 0.0
25/05:00am 16.2 17.2 15.4 95 0.5 ESE 4 7 2 4 1020.5 1017.5 0.0
25/04:30am 16.1 16.6 15.1 94 0.6 ESE 6 11 3 6 1020.3 1017.3 0.0
25/04:00am 16.7 17.3 15.2 91 0.9 E 6 11 3 6 1020.1 1017.1 0.0
25/03:30am 17.5 18.1 15.8 90 1.0 ENE 7 13 4 7 1020.1 1017.1 0.0
25/03:00am 16.9 17.5 15.4 91 0.9 ENE 6 11 3 6 1019.9 1017.0 0.0
25/02:30am 16.8 17.2 15.3 91 0.9 ENE 7 11 4 6 1020.2 1017.2 0.0
25/02:00am 17.1 17.6 15.6 91 0.9 ENE 7 11 4 6 1020.5 1017.5 0.0
25/01:30am 17.1 17.3 15.8 92 0.8 ENE 9 13 5 7 1020.9 1017.9 0.0
25/01:00am 17.3 17.2 16.0 92 0.8 ENE 11 19 6 10 1021.1 1018.2 0.0
25/12:30am 17.3 17.2 16.0 92 0.8 ENE 11 20 6 11 1021.5 1018.6 0.0
25/12:00am 17.4 17.7 16.1 92 0.8 ENE 9 19 5 10 1021.6 1018.7 0.0
 
Date/Time
EST
Temp
°C
App
Temp
°C
Dew
Point
Rel
Hum
%
Delta-T
°C
Wind Press
QNH
hPa
Press
MSL
hPa
Rain
since 9 am
mm
Dir
 
Spd
km/h
Gust
km/h
Spd
kts
Gust
kts
24/11:30pm 17.5 17.9 16.2 92 0.8 ENE 9 17 5 9 1022.1 1019.1 0.0
24/11:00pm 17.6 18.1 16.5 93 0.7 ENE 9 19 5 10 1022.2 1019.2 0.0
24/10:30pm 17.8 17.9 16.5 92 0.8 ENE 11 22 6 12 1022.3 1019.3 0.0
24/10:00pm 17.8 17.5 16.5 92 0.8 ENE 13 28 7 15 1022.3 1019.3 0.0
24/09:30pm 17.4 17.8 16.3 93 0.7 NE 9 15 5 8 1022.1 1019.1 0.0
24/09:00pm 17.8 18.2 16.3 91 0.9 NE 9 19 5 10 1021.7 1018.8 0.0
24/08:30pm 18.1 18.1 16.3 89 1.1 NE 11 20 6 11 1021.4 1018.5 0.0
24/08:00pm 18.1 18.4 15.9 87 1.3 NE 9 19 5 10 1021.1 1018.2 0.0
24/07:30pm 18.4 18.4 15.1 81 2.0 NE 9 15 5 8 1020.8 1017.8 0.0
24/07:00pm 19.0 18.3 13.2 69 3.4 NE 9 19 5 10 1020.5 1017.5 0.0
24/06:30pm 19.7 18.4 12.5 63 4.1 NE 11 19 6 10 1020.3 1017.3 0.0
24/06:00pm 20.4 18.9 11.9 58 4.8 NNE 11 17 6 9 1020.1 1017.1 0.0
24/05:30pm 21.3 19.7 11.6 54 5.5 NNE 11 20 6 11 1019.8 1016.9 0.0
24/05:00pm 22.7 21.4 11.1 48 6.6 NNE 9 20 5 11 1019.5 1016.6 0.0
24/04:30pm 23.4 21.3 9.8 42 7.6 NNE 11 20 6 11 1019.3 1016.3 0.0
24/04:00pm 24.1 21.4 8.9 38 8.4 NNE 13 22 7 12 1019.1 1016.1 0.0
24/03:30pm 24.7 22.5 9.4 38 8.6 NNE 11 20 6 11 1018.9 1015.9 0.0
24/03:00pm 25.0 22.1 9.7 38 8.6 NNE 15 24 8 13 1019.0 1016.0 0.0
24/02:30pm 26.3 23.6 8.8 33 9.8 NNE 13 24 7 13 1019.2 1016.2 0.0
24/02:00pm 25.6 22.9 9.0 35 9.2 NE 13 22 7 12 1019.5 1016.6 0.0
24/01:30pm 25.5 22.6 9.7 37 8.9 NNE 15 26 8 14 1019.8 1016.9 0.0
24/01:00pm 26.5 23.8 8.9 33 9.8 NNE 13 24 7 13 1020.1 1017.1 0.0
24/12:30pm 25.6 23.0 7.7 32 9.8 NE 11 22 6 12 1020.6 1017.6 0.0
24/12:00pm 26.4 23.9 8.4 32 10.0 NE 11 19 6 10 1020.8 1017.8 0.0
24/11:30am 25.8 22.8 4.3 25 11.1 E 9 19 5 10 1021.0 1018.1 0.0
24/11:00am 25.1 21.8 4.8 27 10.5 E 11 19 6 10 1021.3 1018.4 0.0
24/10:30am 24.8 23.0 7.9 34 9.2 E 7 13 4 7 1021.5 1018.6 0.0
24/10:00am 24.1 21.8 7.3 34 9.0 ENE 9 17 5 9 1021.8 1018.9 0.0
24/09:30am 23.4 21.2 7.9 37 8.4 E 9 17 5 9 1022.1 1019.1 0.0
24/09:00am 22.2 20.2 7.2 38 7.9 ESE 7 15 4 8 1022.4 1019.4 0.0
24/08:30am 20.5 19.8 11.4 56 5.2 ESE 6 11 3 6 1022.4 1019.4 0.0
24/08:00am 20.1 20.2 13.8 67 3.7 E 6 11 3 6 1022.4 1019.4 0.0
24/07:30am 18.9 19.4 15.0 78 2.3 ENE 6 13 3 7 1022.2 1019.2 0.0
24/07:00am 17.9 19.0 15.5 86 1.4 ENE 4 7 2 4 1021.7 1018.8 0.0
24/06:30am 14.4 15.6 13.8 96 0.3 CALM 0 0 0 0 1021.4 1018.5 0.0
24/06:00am 13.9 14.8 13.0 94 0.5 CALM 0 4 0 2 1021.2 1018.3 0.0
24/05:30am 15.3 15.8 14.0 92 0.8 E 4 7 2 4 1020.8 1017.8 0.0
24/05:00am 16.1 16.4 14.5 90 0.9 ENE 6 9 3 5 1020.6 1017.6 0.0
24/04:30am 16.3 16.7 14.7 90 0.9 ENE 6 9 3 5 1020.4 1017.4 0.0
24/04:00am 16.6 16.9 14.6 88 1.2 ENE 6 11 3 6 1020.2 1017.2 0.0
24/03:30am 16.7 17.0 14.9 89 1.1 ENE 7 13 4 7 1019.9 1017.0 0.0
24/03:00am 17.1 17.2 15.4 90 1.0 ENE 9 15 5 8 1019.9 1017.0 0.0
24/02:30am 17.2 17.3 15.5 90 1.0 ENE 9 17 5 9 1020.2 1017.2 0.0
24/02:00am 17.1 17.2 15.4 90 1.0 ENE 9 15 5 8 1020.5 1017.5 0.0
24/01:30am 17.4 17.2 15.6 89 1.1 ENE 11 20 6 11 1020.9 1017.9 0.0
24/01:00am 17.6 16.7 15.9 90 1.0 ENE 15 24 8 13 1021.2 1018.3 0.0
24/12:30am 17.4 17.0 16.1 92 0.8 NE 13 20 7 11 1021.4 1018.5 0.0
24/12:00am 17.6 17.6 16.3 92 0.8 ENE 11 22 6 12 1021.5 1018.6 0.0
 
Date/Time
EST
Temp
°C
App
Temp
°C
Dew
Point
Rel
Hum
%
Delta-T
°C
Wind Press
QNH
hPa
Press
MSL
hPa
Rain
since 9 am
mm
Dir
 
Spd
km/h
Gust
km/h
Spd
kts
Gust
kts
23/11:30pm 17.7 17.4 16.4 92 0.8 ENE 13 24 7 13 1021.8 1018.9 0.0
23/11:00pm 17.8 18.0 16.7 93 0.7 ENE 11 22 6 12 1022.0 1019.0 0.0
23/10:30pm 17.8 17.4 16.1 90 1.0 ENE 13 22 7 12 1021.8 1018.9 0.0
23/10:00pm 17.8 17.3 15.8 88 1.2 NE 13 24 7 13 1021.6 1018.7 0.0
23/09:30pm 17.9 17.0 15.9 88 1.2 NE 15 26 8 14 1021.6 1018.7 0.0
23/09:00pm 18.0 17.5 15.8 87 1.3 NE 13 26 7 14 1021.3 1018.4 0.0
23/08:30pm 17.8 18.1 16.0 89 1.1 NE 9 15 5 8 1020.9 1017.9 0.0
23/08:00pm 18.2 18.6 16.2 88 1.2 NNE 9 20 5 11 1020.7 1017.7 0.0
23/07:30pm 18.5 18.5 16.3 87 1.3 NNE 11 20 6 11 1020.4 1017.4 0.0
23/07:00pm 18.7 19.0 15.9 84 1.7 NNE 9 19 5 10 1020.1 1017.1 0.0
23/06:30pm 19.2 18.6 15.7 80 2.1 NNE 13 20 7 11 1019.6 1016.7 0.0

Other Formats:

Comma delimited format used in spreadsheet applications
http://www.bom.gov.au/fwo/IDQ60801/IDQ60801.95293.axf

JavaScript Object Notation format (JSON) in row-major order
http://www.bom.gov.au/fwo/IDQ60801/IDQ60801.95293.json